Tiempo atmosférico en la estación meteorológica de Villafáfila, Zamora (690 m.)



Fecha
DESCASC
Temp. máxima en grados centígrados (hora)
DESCASC
Temp. mínima en grados centígrados (hora)
DESCASC
Temp. media en grados centígrados
DESCASC
Racha de viento máxima en m/sg (hora)
DESCASC
Velocidad máxima media en intervalos de 10 minutos(hora)
DESCASC
Precipitaciones diarias en mm
DESCASC
Precipitaciones de 00:00 a 06:00 en mm
DESCASC
Precipitaciones de 06:00 a 12:00 en mm
DESCASC
Precipitaciones de 12:00 a 18:00 en mm
DESCASC
Precipitaciones de 18:00 a 24:00 en mm
DESCASC
03-12-2020 7.1 (22:10) -4.3 (07:20) 1.4 17.22 (20:40) 11.94 (20:40) 0.2 0 0 0 0.2
02-12-2020 8.7 (15:50) -1.1 (23:59) 3.8 6.67 (08:50) 4.17 (11:50) 0 0 0 0 0
01-12-2020 14.4 (15:50) -1.3 (08:40) 6.5 6.11 (01:50) 4.72 (02:30) 0 0 0 0 0
30-11-2020 14.2 (15:10) 2.4 (00:00) 8.3 5.83 (15:10) 3.89 (06:50) 0 0 0 0 0
29-11-2020 13.2 (15:20) 2.3 (00:00) 7.7 4.17 (07:10) 3.33 (19:30) 0 0 0 0 0
28-11-2020 7.9 (13:00) 1.8 (00:00) 4.9 4.44 (06:50) 3.33 (06:10) 0 0 0 0 0
27-11-2020 14.9 (15:10) 4.6 (00:00) 9.7 9.17 (13:50) 6.39 (15:20) 0.4 0.4 0 0 0
26-11-2020 11.9 (13:10) 6.6 (00:00) 9.2 10.28 (10:20) 7.22 (10:20) 1 0.6 0 0 0.4
25-11-2020 8 (21:30) 0.9 (00:00) 4.4 6.39 (21:20) 4.72 (21:20) 6.8 0 3.2 3.6 0
24-11-2020 11.9 (16:10) -2.2 (-00:0) 4.8 7.22 (15:50) 4.17 (16:20) 0 0 0 0 0
23-11-2020 13.7 (17:00) -0.6 (-00:0) 6.5 4.72 (12:40) 3.33 (08:20) 0 0 0 0 0
22-11-2020 14.8 (16:20) -1.4 (-00:0) 6.7 2.78 (03:20) 2.5 (03:20) 0 0 0 0 0
21-11-2020 15.6 (15:40) 1.5 (00:00) 8.6 6.39 (15:10) 4.44 (13:50) 0 0 0 0 0
20-11-2020 12.9 (15:50) 4.1 (00:00) 8.5 9.72 (10:50) 6.67 (11:10) 0 0 0 0 0
19-11-2020 18 (15:50) 4 (00:00) 11 8.61 (20:10) 6.11 (20:10) 0 0 0 0 0
18-11-2020 16 (16:50) 4.5 (00:00) 10.3 3.89 (12:30) 3.06 (13:30) 0.2 0.2 0 0 0
17-11-2020 13.9 (15:40) 2.1 (00:00) 8 4.17 (05:50) 3.06 (04:40) 0.2 0 0 0 0.2
16-11-2020 15.6 (16:50) 5.2 (00:00) 10.4 5.28 (01:50) 3.89 (01:50) 0 0 0 0 0
15-11-2020 16.9 (13:40) 10.7 (00:00) 13.8 15.28 (14:10) 10 (14:10) 0.6 0.4 0.2 0 0
14-11-2020 13.7 (17:00) 5.6 (00:00) 9.6 8.06 (22:50) 5 (22:20) 0 0 0 0 0
13-11-2020 9.2 (15:50) 6 (00:00) 7.6 5.28 (01:40) 4.17 (01:40) 0.2 0 0 0 0.2
12-11-2020 10.6 (15:30) 5.3 (00:00) 8 3.89 (23:59) 3.06 (23:59) 0 0 0 0 0
11-11-2020 10.8 (15:10) 7.1 (00:00) 9 5.83 (15:50) 3.06 (14:30) 0 0 0 0 0
10-11-2020 8.4 (19:30) 2.2 (00:00) 5.3 4.72 (14:50) 2.5 (17:00) 0.2 0 0.2 0 0
09-11-2020 14.6 (16:20) 6.2 (00:00) 10.4 7.5 (13:10) 4.72 (14:30) 0 0 0 0 0
08-11-2020 13.3 (11:50) 8.1 (00:00) 10.7 10 (19:20) 6.67 (19:10) 6.8 0 0 2.6 4.2
07-11-2020 16.1 (15:00) 8.4 (00:00) 12.3 10.56 (15:20) 6.94 (15:20) 2 0.4 1.6 0 0
06-11-2020 16.1 (16:00) 8.3 (00:00) 12.2 16.39 (20:00) 10.83 (20:00) 5.4 0.4 0 0 5
05-11-2020 12.7 (15:50) 5.3 (00:00) 9 16.67 (08:50) 11.94 (00:20) 3.6 0 0.4 0 3.2

Gráficas

Temp. máximas Temp. mínimas Temp. medias Precipitaciones Rachas de viento máximas Velocidades máximas media en intervalos de 10 minutos

Datos horarios

Fecha y hora oficial Temperatura (ºC) Velocidad del viento (km/h) Dirección del viento Racha (km/h) Dirección de racha Precipitación (mm) Presión (hPa) Tendencia (hPa) Humedad (%)
2020-12-04 23:00:00 -0.2 9 Sudoeste 17 Sudoeste 0 -- -- 89
2020-12-04 22:00:00 0 11 Sudoeste 18 Sudoeste 0 -- -- 88
2020-12-04 21:00:00 0.5 13 Sudoeste 20 Sudoeste 0 -- -- 86
2020-12-04 20:00:00 0.9 14 Oeste 19 Sudoeste 0 -- -- 84
2020-12-04 19:00:00 2 17 Oeste 25 Oeste 0 -- -- 81
2020-12-04 18:00:00 3.6 18 Oeste 36 Oeste 0 -- -- 74
2020-12-04 17:00:00 4.3 24 Sudoeste 41 Sudoeste 0 -- -- 70
2020-12-04 16:00:00 5.9 27 Sudoeste 38 Sudoeste 0 -- -- 66
2020-12-04 15:00:00 5.1 27 Sudoeste 40 Sudoeste 0 -- -- 68
2020-12-04 14:00:00 5.2 30 Sudoeste 58 Sudoeste 0 -- -- 67
2020-12-04 13:00:00 5.3 29 Sudoeste 51 Sudoeste 0 -- -- 67
2020-12-04 12:00:00 4.3 31 Sudoeste 43 Sudoeste 0 -- -- 73
2020-12-04 11:00:00 3 30 Sudoeste 48 Oeste 0 -- -- 78
2020-12-04 10:00:00 2 28 Sudoeste 42 Sudoeste 0 -- -- 83
2020-12-04 09:00:00 1.1 22 Oeste 35 Sudoeste 0 -- -- 86
2020-12-04 08:00:00 1.3 21 Sudoeste 37 Oeste 0 -- -- 87
2020-12-04 07:00:00 1.9 21 Sudoeste 37 Sudoeste 0 -- -- 86
2020-12-04 06:00:00 2.5 16 Sudoeste 23 Sudoeste 0 -- -- 82
2020-12-04 05:00:00 3 15 Oeste 25 Sudoeste 0 -- -- 86
2020-12-04 04:00:00 3.7 19 Sudoeste 29 Oeste 0 -- -- 81
2020-12-04 03:00:00 3.9 21 Oeste 39 Oeste 0 -- -- 76
2020-12-04 02:00:00 6 32 Oeste 53 Oeste 0 -- -- 74
2020-12-04 01:00:00 6.9 31 Sudoeste 50 Sudoeste 0 -- -- 87
2020-12-04 00:00:00 6.9 32 Sudoeste 46 Sudoeste 0 -- -- 89
2020-12-03 23:00:00 6.5 22 Sudoeste 49 Sudoeste 0.2 -- -- 91
2020-12-03 22:00:00 7 34 Sudoeste 50 Sudoeste 0 -- -- 85
2020-12-03 21:00:00 6.7 28 Sudoeste 62 Sudoeste 0 -- -- 85
2020-12-03 20:00:00 6.8 22 Sudoeste 37 Sudoeste 0 -- -- 81
2020-12-03 19:00:00 6.6 27 Sudoeste 42 Sur 0 -- -- 79
2020-12-03 18:00:00 6.3 25 Sudoeste 41 Sudoeste 0 -- -- 76
2020-12-03 17:00:00 6.4 22 Sudoeste 39 Sudoeste 0 -- -- 73
2020-12-03 16:00:00 6.8 29 Sudoeste 43 Sudoeste 0 -- -- 69
2020-12-03 15:00:00 6.7 26 Sudoeste 41 Sudoeste 0 -- -- 66
2020-12-03 14:00:00 6.2 25 Sudoeste 36 Sudoeste 0 -- -- 69
2020-12-03 13:00:00 5.9 21 Sudoeste 33 Sudoeste 0 -- -- 70
2020-12-03 12:00:00 5.3 16 Sudoeste 23 Sudoeste 0 -- -- 75
2020-12-03 11:00:00 2.4 10 Sudoeste 15 Sudoeste 0 -- -- 92
2020-12-03 10:00:00 -0.5 8 Sur 14 Sur 0 -- -- 95
2020-12-03 09:00:00 -2.3 7 Sur 12 Sur 0 -- -- 95
2020-12-03 08:00:00 -3.7 3 Sur 5 Sur 0 -- -- 95
2020-12-03 07:00:00 -4 5 Sudeste 8 Norte 0 -- -- 92
2020-12-03 06:00:00 -3.1 3 Sudeste 11 Noroeste 0 -- -- 93
2020-12-03 05:00:00 -3.3 6 Oeste 9 Noroeste 0 -- -- 92
2020-12-03 04:00:00 -3.3 2 Norte 5 Noroeste 0 -- -- 92
2020-12-03 03:00:00 -2.6 2 Sudeste 4 Sudeste 0 -- -- 92
2020-12-03 02:00:00 -2.3 3 Nordeste 7 Norte 0 -- -- 92
2020-12-03 01:00:00 -1.6 0 Calma 5 Noroeste 0 -- -- 90
2020-12-03 00:00:00 -1.1 0 Calma 6 Sudeste 0 -- -- 89
2020-12-02 23:00:00 -0.4 0 Calma 6 Norte 0 -- -- 88
2020-12-02 22:00:00 0.8 0 Calma 7 Nordeste 0 -- -- 86
2020-12-02 21:00:00 2 0 Calma 10 Este 0 -- -- 87
2020-12-02 20:00:00 2.3 6 Nordeste 15 Este 0 -- -- 85
2020-12-02 19:00:00 4.1 6 Oeste 9 Noroeste 0 -- -- 81
2020-12-02 18:00:00 6 7 Oeste 8 Oeste 0 -- -- 74
2020-12-02 17:00:00 8.3 3 Este 12 Este 0 -- -- 64
2020-12-02 16:00:00 8.6 7 Este 15 Este 0 -- -- 64
2020-12-02 15:00:00 8 10 Este 22 Este 0 -- -- 67
2020-12-02 14:00:00 7.7 10 Este 16 Este 0 -- -- 71
2020-12-02 13:00:00 7.1 13 Este 17 Este 0 -- -- 73
2020-12-02 12:00:00 6.7 14 Este 22 Este 0 -- -- 76
2020-12-02 11:00:00 6.3 14 Este 19 Este 0 -- -- 81
2020-12-02 10:00:00 4.8 12 Nordeste 20 Nordeste 0 -- -- 87
2020-12-02 09:00:00 4.3 13 Nordeste 24 Nordeste 0 -- -- 92
2020-12-02 08:00:00 2.1 2 Norte 4 Norte 0 -- -- 92
2020-12-02 07:00:00 2 3 Este 7 Noroeste 0 -- -- 90
2020-12-02 06:00:00 3.3 3 Sur 5 Noroeste 0 -- -- 88
2020-12-02 05:00:00 3.8 0 Calma 4 Nordeste 0 -- -- 88
2020-12-02 04:00:00 4.2 0 Calma 5 Noroeste 0 -- -- 88
2020-12-02 03:00:00 4 4 Sur 8 Sur 0 -- -- 88
2020-12-02 02:00:00 3.9 4 Oeste 7 Oeste 0 -- -- 83
2020-12-02 01:00:00 4.9 0 Calma 11 Noroeste 0 -- -- 82
2020-12-02 00:00:00 5.7 8 Norte 13 Norte 0 -- -- 82
2020-12-01 23:00:00 5.8 8 Noroeste 13 Norte 0 -- -- 80
2020-12-01 22:00:00 6.9 4 Noroeste 12 Norte 0 -- -- 83
2020-12-01 21:00:00 6.2 0 Calma 7 Nordeste 0 -- -- 84
2020-12-01 20:00:00 6.8 6 Noroeste 10 Norte 0 -- -- 81
2020-12-01 19:00:00 8.2 0 Calma 8 Sur 0 -- -- 74
2020-12-01 18:00:00 10.8 6 Sudoeste 9 Sur 0 -- -- 64
2020-12-01 17:00:00 13.5 0 Calma 7 Nordeste 0 -- -- 55
2020-12-01 16:00:00 14.3 4 Norte 13 Nordeste 0 -- -- 47
2020-12-01 15:00:00 13.8 8 Este 19 Norte 0 -- -- 47
2020-12-01 14:00:00 12.7 6 Norte 13 Noroeste 0 -- -- 58
2020-12-01 13:00:00 10.7 8 Norte 15 Norte 0 -- -- 66
2020-12-01 12:00:00 8.1 12 Norte 21 Norte 0 -- -- 76
2020-12-01 11:00:00 4.5 13 Noroeste 21 Noroeste 0 -- -- 87
2020-12-01 10:00:00 1.9 8 Norte 10 Norte 0 -- -- 95
2020-12-01 09:00:00 -0.9 6 Noroeste 11 Noroeste 0 -- -- 95
2020-12-01 08:00:00 -1 5 Noroeste 9 Noroeste 0 -- -- 94
2020-12-01 07:00:00 -0.3 4 Noroeste 14 Noroeste 0 -- -- 94
2020-12-01 06:00:00 0.2 12 Noroeste 15 Noroeste 0 -- -- 94
2020-12-01 05:00:00 0.7 12 Noroeste 13 Noroeste 0 -- -- 94
2020-12-01 04:00:00 1.6 12 Norte 20 Noroeste 0 -- -- 94
2020-12-01 03:00:00 2.2 16 Norte 22 Noroeste 0 -- -- 94
2020-12-01 02:00:00 2.5 14 Norte 22 Norte 0 -- -- 94
2020-12-01 01:00:00 2.6 13 Norte 15 Norte 0 -- -- 93
2020-12-01 00:00:00 3.4 9 Noroeste 13 Norte 0 -- -- 93
2020-11-30 23:00:00 3.8 4 Noroeste 16 Norte 0 -- -- 92
2020-11-30 22:00:00 4.6 5 Noroeste 15 Norte 0 -- -- 91
2020-11-30 21:00:00 5.1 14 Norte 17 Norte 0 -- -- 91
2020-11-30 20:00:00 5.4 9 Norte 12 Norte 0 -- -- 87
2020-11-30 19:00:00 7.2 11 Norte 14 Norte 0 -- -- 84
2020-11-30 18:00:00 10.3 6 Norte 12 Nordeste 0 -- -- 75
2020-11-30 17:00:00 13 10 Nordeste 16 Nordeste 0 -- -- 69
2020-11-30 16:00:00 14.1 12 Nordeste 21 Nordeste 0 -- -- 63
2020-11-30 15:00:00 14.1 11 Nordeste 20 Norte 0 -- -- 64
2020-11-30 14:00:00 12.9 12 Norte 18 Norte 0 -- -- 72
2020-11-30 13:00:00 11 10 Norte 14 Norte 0 -- -- 78
2020-11-30 12:00:00 10 6 Nordeste 14 Nordeste 0 -- -- 77
2020-11-30 11:00:00 8.2 8 Nordeste 17 Norte 0 -- -- 85
2020-11-30 10:00:00 4.4 10 Norte 16 Norte 0 -- -- 96
2020-11-30 09:00:00 2.7 7 Noroeste 16 Noroeste 0 -- -- 95
2020-11-30 08:00:00 2.4 10 Noroeste 16 Norte 0 -- -- 94
2020-11-30 07:00:00 3.1 14 Norte 20 Norte 0 -- -- 95
2020-11-30 06:00:00 3.1 12 Norte 15 Norte 0 -- -- 95
2020-11-30 05:00:00 3.3 10 Norte 14 Norte 0 -- -- 94
2020-11-30 04:00:00 3.6 10 Noroeste 17 Norte 0 -- -- 94
2020-11-30 03:00:00 4 12 Noroeste 14 Noroeste 0 -- -- 94
2020-11-30 02:00:00 4.4 11 Noroeste 14 Noroeste 0 -- -- 94
2020-11-30 01:00:00 4.3 9 Noroeste 15 Noroeste 0 -- -- 94
2020-11-30 00:00:00 4.6 4 Oeste 8 Noroeste 0 -- -- 93
2020-11-29 23:00:00 4.6 5 Norte 14 Norte 0 -- -- 93
2020-11-29 22:00:00 4.6 0 Calma 6 Este 0 -- -- 91
2020-11-29 21:00:00 5.4 0 Calma 14 Nordeste 0 -- -- 88
2020-11-29 20:00:00 6 10 Nordeste 14 Norte 0 -- -- 89
2020-11-29 19:00:00 7.2 9 Norte 10 Norte 0 -- -- 86
2020-11-29 18:00:00 9.6 6 Nordeste 7 Norte 0 -- -- 80
2020-11-29 17:00:00 12.3 5 Noroeste 6 Noroeste 0 -- -- 74
2020-11-29 16:00:00 13.1 6 Noroeste 9 Noroeste 0 -- -- 69
2020-11-29 15:00:00 12.7 4 Norte 9 Nordeste 0 -- -- 72
2020-11-29 14:00:00 12.2 6 Nordeste 12 Nordeste 0 -- -- 71
2020-11-29 13:00:00 10.5 4 Norte 11 Nordeste 0 -- -- 76
2020-11-29 12:00:00 9.1 7 Nordeste 13 Nordeste 0 -- -- 83
2020-11-29 11:00:00 7.1 10 Nordeste 13 Nordeste 0 -- -- 95
2020-11-29 10:00:00 4.9 8 Nordeste 14 Nordeste 0 -- -- 97
2020-11-29 09:00:00 2.6 6 Norte 10 Norte 0 -- -- 96
2020-11-29 08:00:00 2.5 9 Noroeste 15 Nordeste 0 -- -- 96
2020-11-29 07:00:00 2.3 10 Norte 14 Norte 0 -- -- 96
2020-11-29 06:00:00 3.4 8 Norte 9 Norte 0 -- -- 95
2020-11-29 05:00:00 5.2 4 Noroeste 11 Nordeste 0 -- -- 96
2020-11-29 04:00:00 5.1 0 Calma 11 Nordeste 0 -- -- 97
2020-11-29 03:00:00 4 6 Norte 8 Noroeste 0 -- -- 96
2020-11-29 02:00:00 3.3 4 Noroeste 10 Norte 0 -- -- 96
2020-11-29 01:00:00 3.3 6 Norte 11 Oeste 0 -- -- 95
2020-11-29 00:00:00 3.7 5 Nordeste 8 Nordeste 0 -- -- 94
2020-11-28 23:00:00 4.8 5 Norte 9 Nordeste 0 -- -- 93
2020-11-28 22:00:00 6.3 4 Nordeste 10 Este 0 -- -- 95
2020-11-28 21:00:00 6.5 5 Sudeste 10 Sur 0 -- -- 95
2020-11-28 20:00:00 6.6 6 Sudeste 15 Sur 0 -- -- 95
2020-11-28 19:00:00 6.4 5 Sudeste 14 Sudeste 0 -- -- 95
2020-11-28 18:00:00 6.5 11 Sur 15 Sur 0 -- -- 93
2020-11-28 17:00:00 7.1 9 Sudeste 15 Sudeste 0 -- -- 91
2020-11-28 16:00:00 7.5 9 Sur 13 Sur 0 -- -- 90
2020-11-28 15:00:00 7.6 6 Sur 16 Sudoeste 0 -- -- 90
2020-11-28 14:00:00 7.2 7 Sudoeste 14 Sur 0 -- -- 89
2020-11-28 13:00:00 7.9 7 Este 12 Nordeste 0 -- -- 90
2020-11-28 12:00:00 6.5 5 Nordeste 13 Nordeste 0 -- -- 96
2020-11-28 11:00:00 5.8 9 Nordeste 12 Nordeste 0 -- -- 96
2020-11-28 10:00:00 5 7 Norte 11 Norte 0 -- -- 97
2020-11-28 09:00:00 4.1 0 Calma 12 Noroeste 0 -- -- 96
2020-11-28 08:00:00 3.4 8 Noroeste 12 Noroeste 0 -- -- 97
2020-11-28 07:00:00 1.8 8 Norte 16 Norte 0 -- -- 95
2020-11-28 06:00:00 2.5 10 Norte 14 Norte 0 -- -- 95
2020-11-28 05:00:00 2.9 8 Norte 11 Noroeste 0 -- -- 95
2020-11-28 04:00:00 3 8 Norte 14 Norte 0 -- -- 95
2020-11-28 03:00:00 2.8 11 Noroeste 13 Noroeste 0 -- -- 94
2020-11-28 02:00:00 3.6 6 Norte 12 Nordeste 0 -- -- 93
2020-11-28 01:00:00 4.5 5 Norte 13 Norte 0 -- -- 91
2020-11-28 00:00:00 5.7 10 Norte 16 Norte 0 -- -- 92
2020-11-27 23:00:00 7.1 10 Nordeste 19 Nordeste 0 -- -- 89
2020-11-27 22:00:00 8.1 15 Nordeste 20 Nordeste 0 -- -- 88
2020-11-27 21:00:00 7.8 9 Este 20 Nordeste 0 -- -- 89
2020-11-27 20:00:00 8 9 Nordeste 17 Nordeste 0 -- -- 86
2020-11-27 19:00:00 8.8 13 Nordeste 17 Nordeste 0 -- -- 84
2020-11-27 18:00:00 11.5 9 Nordeste 22 Nordeste 0 -- -- 76
2020-11-27 17:00:00 13.1 13 Este 26 Nordeste 0 -- -- 69
2020-11-27 16:00:00 12.9 12 Este 32 Este 0 -- -- 68
2020-11-27 15:00:00 14.1 15 Este 29 Este 0 -- -- 70
2020-11-27 14:00:00 12.6 19 Nordeste 33 Nordeste 0 -- -- 78
2020-11-27 13:00:00 12.1 19 Nordeste 25 Nordeste 0 -- -- 81
2020-11-27 12:00:00 10.5 11 Nordeste 19 Nordeste 0 -- -- 85
2020-11-27 11:00:00 9.9 10 Norte 15 Norte 0 -- -- 86
2020-11-27 10:00:00 7.6 9 Nordeste 17 Nordeste 0 -- -- 95
2020-11-27 09:00:00 5.2 10 Nordeste 19 Norte 0 -- -- 95
2020-11-27 08:00:00 5 17 Norte 21 Norte 0 -- -- 94
2020-11-27 07:00:00 5 10 Noroeste 18 Norte 0 -- -- 92
2020-11-27 06:00:00 6.1 9 Norte 17 Nordeste 0 -- -- 91
2020-11-27 05:00:00 7.6 10 Nordeste 17 Nordeste 0 -- -- 92
2020-11-27 04:00:00 8 13 Nordeste 18 Nordeste 0 -- -- 92
2020-11-27 03:00:00 8.2 9 Norte 18 Nordeste 0 -- -- 92
2020-11-27 02:00:00 8.3 16 Nordeste 27 Nordeste 0 -- -- 92
2020-11-27 01:00:00 8.6 18 Nordeste 26 Nordeste 0.4 -- -- 93
2020-11-27 00:00:00 8.8 12 Nordeste 24 Este 0 -- -- 92
2020-11-26 23:00:00 9.2 11 Este 26 Este 0.4 -- -- 90
2020-11-26 22:00:00 9.8 22 Este 34 Este 0 -- -- 84
2020-11-26 21:00:00 10 22 Nordeste 34 Nordeste 0 -- -- 82
2020-11-26 20:00:00 10.2 23 Nordeste 37 Nordeste 0 -- -- 81
2020-11-26 19:00:00 10.2 16 Nordeste 28 Nordeste 0 -- -- 84
2020-11-26 18:00:00 10.5 18 Nordeste 27 Este 0 -- -- 81
2020-11-26 17:00:00 11 22 Nordeste 33 Nordeste 0 -- -- 81
2020-11-26 16:00:00 11.4 18 Nordeste 30 Nordeste 0 -- -- 81
2020-11-26 15:00:00 11.3 18 Nordeste 27 Nordeste 0 -- -- 78
2020-11-26 14:00:00 11.6 15 Nordeste 31 Este 0 -- -- 75
2020-11-26 13:00:00 11.3 18 Nordeste 37 Este 0 -- -- 76
2020-11-26 12:00:00 11.2 18 Este 33 Este 0 -- -- 79
2020-11-26 11:00:00 8.4 22 Nordeste 37 Este 0 -- -- 88
2020-11-26 10:00:00 7.6 22 Nordeste 35 Este 0 -- -- 90
2020-11-26 09:00:00 7 18 Este 27 Este 0 -- -- 91
2020-11-26 08:00:00 6.7 19 Nordeste 27 Nordeste 0 -- -- 92
2020-11-26 07:00:00 6.8 19 Nordeste 28 Nordeste 0 -- -- 92
2020-11-26 06:00:00 7.6 19 Nordeste 27 Nordeste 0 -- -- 92
2020-11-26 05:00:00 7.4 10 Nordeste 15 Nordeste 0 -- -- 93
2020-11-26 04:00:00 7.9 5 Nordeste 13 Nordeste 0.4 -- -- 93
2020-11-26 03:00:00 8 10 Este 17 Sudeste 0 -- -- 92
2020-11-26 02:00:00 7.5 9 Nordeste 12 Este 0.2 -- -- 92
2020-11-26 01:00:00 7.6 6 Nordeste 19 Nordeste 0 -- -- 89
2020-11-26 00:00:00 7.9 12 Nordeste 19 Este 0 -- -- 88
2020-11-25 23:00:00 7.7 11 Este 17 Este 0 -- -- 91
2020-11-25 22:00:00 7.9 11 Este 23 Sudeste 0 -- -- 91
2020-11-25 21:00:00 7.7 9 Este 17 Este 0 -- -- 92
2020-11-25 20:00:00 7.7 10 Nordeste 18 Nordeste 0 -- -- 93
2020-11-25 19:00:00 7.6 12 Nordeste 22 Nordeste 0 -- -- 94
2020-11-25 18:00:00 7.5 13 Nordeste 18 Nordeste 0.4 -- -- 94
2020-11-25 17:00:00 7.8 10 Nordeste 17 Nordeste 0 -- -- 94
2020-11-25 16:00:00 7.6 11 Nordeste 14 Nordeste 0.4 -- -- 94
2020-11-25 15:00:00 7.3 9 Nordeste 13 Nordeste 1 -- -- 94
2020-11-25 14:00:00 7.1 8 Nordeste 16 Nordeste 1 -- -- 94
2020-11-25 13:00:00 7 12 Este 16 Este 0.8 -- -- 94
2020-11-25 12:00:00 6.8 9 Este 14 Este 0.8 -- -- 95
2020-11-25 11:00:00 6.1 10 Este 17 Este 0.6 -- -- 95
2020-11-25 10:00:00 5.8 12 Sudeste 20 Este 1.2 -- -- 95
2020-11-25 09:00:00 5.1 12 Sudeste 22 Sudeste 0.6 -- -- 95
2020-11-25 08:00:00 4.7 8 Sudeste 15 Sudeste 0 -- -- 96
2020-11-25 07:00:00 3.7 5 Este 8 Este 0 -- -- 96
2020-11-25 06:00:00 2.2 4 Nordeste 9 Este 0 -- -- 96
2020-11-25 05:00:00 1 4 Este 11 Este 0 -- -- 95
2020-11-25 04:00:00 1.1 5 Este 9 Este 0 -- -- 94
2020-11-25 03:00:00 1 6 Sudeste 8 Sudeste 0 -- -- 93
2020-11-25 02:00:00 1.6 0 Calma 8 Sudeste 0 -- -- 92
2020-11-25 01:00:00 3 4 Sudeste 8 Sur 0 -- -- 91
2020-11-25 00:00:00 4.2 8 Sudeste 14 Sur 0 -- -- 88
2020-11-24 23:00:00 6.2 9 Sudeste 14 Sur 0 -- -- 92
2020-11-24 22:00:00 6 7 Sudoeste 13 Sur 0 -- -- 92
2020-11-24 21:00:00 5.2 6 Sudoeste 8 Sudoeste 0 -- -- 92
2020-11-24 20:00:00 6.2 6 Sur 13 Sur 0 -- -- 89
2020-11-24 19:00:00 7.7 8 Sudoeste 14 Sudoeste 0 -- -- 85
2020-11-24 18:00:00 9.4 7 Sudoeste 16 Sudoeste 0 -- -- 79
2020-11-24 17:00:00 11 10 Sudoeste 24 Sudoeste 0 -- -- 73
2020-11-24 16:00:00 11.6 14 Sudoeste 26 Sudoeste 0 -- -- 72
2020-11-24 15:00:00 11.5 12 Sudoeste 18 Sudoeste 0 -- -- 73
2020-11-24 14:00:00 10.9 9 Oeste 18 Sudoeste 0 -- -- 76
2020-11-24 13:00:00 8.2 4 Sur 11 Sudoeste 0 -- -- 87
2020-11-24 12:00:00 5.2 4 Sur 9 Sur 0 -- -- 95
2020-11-24 11:00:00 2.6 0 Calma 7 Sudeste 0 -- -- 97
2020-11-24 10:00:00 -0.3 0 Calma 3 Noroeste 0 -- -- 95
2020-11-24 09:00:00 -1.8 0 Calma 4 Este 0 -- -- 94
2020-11-24 08:00:00 -2.2 3 Este 4 Este 0 -- -- 93
2020-11-24 07:00:00 -1.8 0 Calma 5 Noroeste 0 -- -- 92
2020-11-24 06:00:00 -0.9 3 Oeste 4 Sudoeste 0 -- -- 94
2020-11-24 05:00:00 -0.7 0 Calma 3 Norte 0 -- -- 93
2020-11-24 04:00:00 -0.6 3 Norte 6 Noroeste 0 -- -- 92
2020-11-24 03:00:00 -0.2 5 Norte 6 Norte 0 -- -- 92
2020-11-24 02:00:00 0.4 3 Noroeste 4 Noroeste 0 -- -- 92
2020-11-24 01:00:00 0.6 4 Noroeste 6 Norte 0 -- -- 92
2020-11-24 00:00:00 1.1 3 Noroeste 5 Noroeste 0 -- -- 91
2020-11-23 23:00:00 1.9 0 Calma -- -- 0 -- -- 89
2020-11-23 22:00:00 2.9 0 Calma 7 Noroeste 0 -- -- 89
2020-11-23 21:00:00 3.7 3 Oeste 4 Oeste 0 -- -- 88
2020-11-23 20:00:00 5.4 0 Calma 4 Norte 0 -- -- 82
2020-11-23 19:00:00 7.6 0 Calma -- -- 0 -- -- 75
2020-11-23 18:00:00 10.5 0 Calma -- -- 0 -- -- 67
2020-11-23 17:00:00 13.7 0 Calma 4 Oeste 0 -- -- 56
2020-11-23 16:00:00 13.5 2 Noroeste 6 Noroeste 0 -- -- 55
2020-11-23 15:00:00 13.1 0 Calma 9 Este 0 -- -- 60
2020-11-23 14:00:00 12.2 3 Este 9 Nordeste 0 -- -- 65
2020-11-23 13:00:00 10.6 6 Norte 17 Nordeste 0 -- -- 70
2020-11-23 12:00:00 8.2 8 Norte 14 Norte 0 -- -- 77
2020-11-23 11:00:00 6.3 10 Norte 14 Norte 0 -- -- 86
2020-11-23 10:00:00 3.5 9 Noroeste 16 Noroeste 0 -- -- 96
2020-11-23 09:00:00 0.4 10 Noroeste 14 Noroeste 0 -- -- 95
2020-11-23 08:00:00 -0.6 9 Norte 11 Noroeste 0 -- -- 94
2020-11-23 07:00:00 -0.2 5 Norte 12 Noroeste 0 -- -- 94
2020-11-23 06:00:00 0.3 6 Noroeste 9 Noroeste 0 -- -- 93
2020-11-23 05:00:00 0.6 6 Norte 13 Noroeste 0 -- -- 94
2020-11-23 04:00:00 0.5 8 Noroeste 11 Noroeste 0 -- -- 93
2020-11-23 03:00:00 1 0 Calma 10 Noroeste 0 -- -- 92
2020-11-23 02:00:00 1.5 2 Norte 11 Norte 0 -- -- 91
2020-11-23 01:00:00 2.1 9 Norte 11 Norte 0 -- -- 92
2020-11-23 00:00:00 2.3 5 Noroeste 6 Noroeste 0 -- -- 90
2020-11-22 23:00:00 2.9 2 Noroeste 4 Noroeste 0 -- -- 89
2020-11-22 22:00:00 3.7 0 Calma 4 Este 0 -- -- 87
2020-11-22 21:00:00 4.6 4 Nordeste 5 Nordeste 0 -- -- 87
2020-11-22 20:00:00 6.1 2 Nordeste 7 Nordeste 0 -- -- 81
2020-11-22 19:00:00 8.2 6 Nordeste 9 Este 0 -- -- 76
2020-11-22 18:00:00 11.9 8 Este 10 Este 0 -- -- 64
2020-11-22 17:00:00 14.5 5 Sudeste 10 Sudeste 0 -- -- 55
2020-11-22 16:00:00 14.5 3 Sur 9 Sudeste 0 -- -- 53
2020-11-22 15:00:00 13.7 4 Sur 9 Sur 0 -- -- 55
2020-11-22 14:00:00 12.3 4 Sur 9 Sudoeste 0 -- -- 58
2020-11-22 13:00:00 10.7 3 Sur 6 Sur 0 -- -- 62
2020-11-22 12:00:00 8.1 2 Oeste 6 Noroeste 0 -- -- 69
2020-11-22 11:00:00 5.8 3 Noroeste 8 Noroeste 0 -- -- 79
2020-11-22 10:00:00 2.7 3 Noroeste 5 Noroeste 0 -- -- 92
2020-11-22 09:00:00 -0.6 0 Calma 2 Oeste 0 -- -- 93
2020-11-22 08:00:00 -0.7 0 Calma 4 Noroeste 0 -- -- 93
2020-11-22 07:00:00 -0.8 0 Calma 5 Noroeste 0 -- -- 92
2020-11-22 06:00:00 -0.3 2 Norte 6 Noroeste 0 -- -- 92
2020-11-22 05:00:00 0.1 4 Noroeste 8 Noroeste 0 -- -- 92
2020-11-22 04:00:00 0.6 4 Noroeste 10 Noroeste 0 -- -- 92
2020-11-22 03:00:00 0.9 5 Norte 8 Noroeste 0 -- -- 91
2020-11-22 02:00:00 1.2 3 Noroeste 7 Norte 0 -- -- 89
2020-11-22 01:00:00 1.5 6 Noroeste 8 Noroeste 0 -- -- 90
2020-11-22 00:00:00 1.9 4 Noroeste 6 Norte 0 -- -- 88
2020-11-21 23:00:00 2.3 0 Calma 5 Este 0 -- -- 88
2020-11-21 22:00:00 3 0 Calma 5 Noroeste 0 -- -- 83
2020-11-21 21:00:00 4 2 Noroeste 4 Noroeste 0 -- -- 82
2020-11-21 20:00:00 5.7 4 Nordeste 9 Norte 0 -- -- 74
2020-11-21 19:00:00 8.4 3 Noroeste 8 Este 0 -- -- 65
2020-11-21 18:00:00 12.4 8 Este 9 Este 0 -- -- 52
2020-11-21 17:00:00 15.5 5 Este 16 Nordeste 0 -- -- 40
2020-11-21 16:00:00 15.6 11 Nordeste 23 Nordeste 0 -- -- 35
2020-11-21 15:00:00 15.3 13 Nordeste 19 Nordeste 0 -- -- 35
2020-11-21 14:00:00 14.7 15 Nordeste 23 Nordeste 0 -- -- 35
2020-11-21 13:00:00 13.5 6 Norte 11 Noroeste 0 -- -- 59
2020-11-21 12:00:00 11.3 7 Noroeste 12 Noroeste 0 -- -- 69
2020-11-21 11:00:00 8.8 7 Norte 15 Norte 0 -- -- 79
2020-11-21 10:00:00 5.7 8 Norte 19 Norte 0 -- -- 88
2020-11-21 09:00:00 2.5 14 Noroeste 18 Noroeste 0 -- -- 94
2020-11-21 08:00:00 1.6 10 Noroeste 18 Norte 0 -- -- 93
2020-11-21 07:00:00 1.6 13 Norte 18 Norte 0 -- -- 93
2020-11-21 06:00:00 2.1 6 Noroeste 14 Noroeste 0 -- -- 91
2020-11-21 05:00:00 2.8 13 Norte 18 Norte 0 -- -- 92
2020-11-21 04:00:00 3.1 9 Norte 19 Norte 0 -- -- 90
2020-11-21 03:00:00 3.1 7 Norte 14 Norte 0 -- -- 92
2020-11-21 02:00:00 3.4 10 Norte 22 Norte 0 -- -- 92
2020-11-21 01:00:00 3.6 7 Norte 17 Nordeste 0 -- -- 88
2020-11-21 00:00:00 4.3 10 Nordeste 15 Nordeste 0 -- -- 89
2020-11-20 23:00:00 4.6 7 Nordeste 15 Norte 0 -- -- 86
2020-11-20 22:00:00 5.2 12 Norte 19 Norte 0 -- -- 86
2020-11-20 21:00:00 5.3 10 Norte 18 Norte 0 -- -- 84
2020-11-20 20:00:00 6 15 Norte 17 Norte 0 -- -- 83
2020-11-20 19:00:00 7.1 12 Norte 18 Norte 0 -- -- 81
2020-11-20 18:00:00 10 11 Norte 15 Nordeste 0 -- -- 70
2020-11-20 17:00:00 12.2 13 Nordeste 22 Nordeste 0 -- -- 61
2020-11-20 16:00:00 12.8 13 Nordeste 27 Nordeste 0 -- -- 60
2020-11-20 15:00:00 12.5 19 Nordeste 29 Nordeste 0 -- -- 60
2020-11-20 14:00:00 11.8 18 Nordeste 31 Nordeste 0 -- -- 64
2020-11-20 13:00:00 11 21 Nordeste 28 Nordeste 0 -- -- 66
2020-11-20 12:00:00 10 17 Nordeste 33 Nordeste 0 -- -- 69
2020-11-20 11:00:00 8.7 23 Nordeste 35 Nordeste 0 -- -- 72
2020-11-20 10:00:00 7.6 18 Nordeste 26 Nordeste 0 -- -- 77
2020-11-20 09:00:00 6.6 14 Nordeste 28 Nordeste 0 -- -- 83
2020-11-20 08:00:00 6.2 15 Nordeste 23 Nordeste 0 -- -- 86
2020-11-20 07:00:00 6.2 9 Nordeste 19 Nordeste 0 -- -- 88
2020-11-20 06:00:00 6.4 9 Nordeste 19 Nordeste 0 -- -- 88
2020-11-20 05:00:00 5.7 8 Nordeste 13 Nordeste 0 -- -- 92
2020-11-20 04:00:00 6.2 5 Norte 14 Nordeste 0 -- -- 86
2020-11-20 03:00:00 8 8 Nordeste 24 Nordeste 0 -- -- 85
2020-11-20 02:00:00 8.4 15 Nordeste 25 Nordeste 0 -- -- 86
2020-11-20 01:00:00 7.8 6 Nordeste 24 Este 0 -- -- 90
2020-11-20 00:00:00 8 18 Este 28 Nordeste 0 -- -- 91
2020-11-19 23:00:00 8 19 Nordeste 25 Nordeste 0 -- -- 91
2020-11-19 22:00:00 8.6 14 Nordeste 28 Nordeste 0 -- -- 89
2020-11-19 21:00:00 9.4 17 Este 31 Nordeste 0 -- -- 88
2020-11-19 20:00:00 11 19 Nordeste 27 Este 0 -- -- 89
2020-11-19 19:00:00 11.9 9 Nordeste 13 Nordeste 0 -- -- 82
2020-11-19 18:00:00 15.4 5 Nordeste 7 Este 0 -- -- 74
2020-11-19 17:00:00 17.4 6 Nordeste 12 Nordeste 0 -- -- 67
2020-11-19 16:00:00 17.9 7 Norte 10 Nordeste 0 -- -- 65
2020-11-19 15:00:00 17.4 5 Nordeste 14 Nordeste 0 -- -- 70
2020-11-19 14:00:00 16.4 8 Nordeste 19 Norte 0 -- -- 76
2020-11-19 13:00:00 14.7 9 Nordeste 17 Nordeste 0 -- -- 81
2020-11-19 12:00:00 13 3 Este 10 Este 0 -- -- 87
2020-11-19 11:00:00 9.6 0 Calma 13 Noroeste 0 -- -- 97
2020-11-19 10:00:00 7.2 4 Norte 16 Norte 0 -- -- 97
2020-11-19 09:00:00 5 6 Norte 10 Norte 0 -- -- 98
2020-11-19 08:00:00 4.4 5 Norte 15 Norte 0 -- -- 96
2020-11-19 07:00:00 5.2 12 Norte 17 Noroeste 0 -- -- 96
2020-11-19 06:00:00 4.9 11 Noroeste 17 Noroeste 0 -- -- 96
2020-11-19 05:00:00 4.1 6 Noroeste 9 Noroeste 0 -- -- 96
2020-11-19 04:00:00 4.9 2 Noroeste 9 Norte 0 -- -- 96
2020-11-19 03:00:00 5.4 4 Nordeste 6 Noroeste 0 -- -- 95
2020-11-19 02:00:00 6 4 Norte 8 Noroeste 0 -- -- 95
2020-11-19 01:00:00 6.8 0 Calma 13 Norte 0 -- -- 95
2020-11-19 00:00:00 7.1 9 Noroeste 13 Noroeste 0 -- -- 95
2020-11-18 23:00:00 7.3 8 Noroeste 10 Noroeste 0 -- -- 94
2020-11-18 22:00:00 7.9 0 Calma 8 Noroeste 0 -- -- 93
2020-11-18 21:00:00 8.6 4 Noroeste 11 Norte 0 -- -- 93
2020-11-18 20:00:00 9.1 0 Calma 9 Nordeste 0 -- -- 91
2020-11-18 19:00:00 10.6 0 Calma 5 Norte 0 -- -- 87
2020-11-18 18:00:00 13.7 0 Calma -- -- 0 -- -- 80
2020-11-18 17:00:00 16 0 Calma 9 Este 0 -- -- 75
2020-11-18 16:00:00 15.4 3 Nordeste 8 Nordeste 0 -- -- 79
2020-11-18 15:00:00 13.3 4 Norte 10 Noroeste 0 -- -- 84
2020-11-18 14:00:00 11 8 Norte 14 Norte 0 -- -- 91
2020-11-18 13:00:00 10.2 8 Norte 14 Noroeste 0 -- -- 96
2020-11-18 12:00:00 8.8 6 Norte 9 Noroeste 0 -- -- 98
2020-11-18 11:00:00 7.3 5 Norte 9 Norte 0 -- -- 98
2020-11-18 10:00:00 5.8 5 Norte 8 Norte 0 -- -- 98
2020-11-18 09:00:00 4.5 2 Norte 4 Norte 0 -- -- 97
2020-11-18 08:00:00 4.5 0 Calma 7 Este 0 -- -- 97
2020-11-18 07:00:00 5.2 3 Noroeste 6 Noroeste 0 -- -- 97
2020-11-18 06:00:00 5.3 0 Calma 3 Sudeste 0 -- -- 97
2020-11-18 05:00:00 5.1 0 Calma 4 Sudeste 0.2 -- -- 97
2020-11-18 04:00:00 5.4 0 Calma 4 Sudeste 0 -- -- 97
2020-11-18 03:00:00 5.3 0 Calma 4 Norte 0 -- -- 97
2020-11-18 02:00:00 5.6 0 Calma 4 Norte 0 -- -- 97
2020-11-18 01:00:00 6 0 Calma 4 Noroeste 0 -- -- 97
2020-11-18 00:00:00 6.4 0 Calma 5 Sur 0 -- -- 96
2020-11-17 23:00:00 6.7 2 Sudeste 5 Sudeste 0 -- -- 96
2020-11-17 22:00:00 6.8 0 Calma 3 Sudoeste 0.2 -- -- 96
2020-11-17 21:00:00 7.2 0 Calma 3 Sudoeste 0 -- -- 96
2020-11-17 20:00:00 7.5 0 Calma 2 Sudeste 0 -- -- 95
2020-11-17 19:00:00 8.1 2 Sudoeste 5 Sudoeste 0 -- -- 94
2020-11-17 18:00:00 9.2 2 Sudoeste 9 Sur 0 -- -- 93
2020-11-17 17:00:00 12.3 6 Sur 10 Sudeste 0 -- -- 84
2020-11-17 16:00:00 13.2 8 Sudeste 14 Sudeste 0 -- -- 81
2020-11-17 15:00:00 13.2 6 Este 14 Este 0 -- -- 79
2020-11-17 14:00:00 11.5 9 Este 13 Este 0 -- -- 87
2020-11-17 13:00:00 11 6 Este 12 Este 0 -- -- 86
2020-11-17 12:00:00 10.2 3 Nordeste 7 Este 0 -- -- 86
2020-11-17 11:00:00 7.7 0 Calma 8 Nordeste 0 -- -- 89
2020-11-17 10:00:00 5.8 5 Norte 7 Norte 0 -- -- 96
2020-11-17 09:00:00 3 0 Calma 8 Noroeste 0 -- -- 97
2020-11-17 08:00:00 2.1 0 Calma 9 Noroeste 0 -- -- 96
2020-11-17 07:00:00 2.8 9 Noroeste 13 Noroeste 0 -- -- 96
2020-11-17 06:00:00 3.3 11 Noroeste 15 Noroeste 0 -- -- 96
2020-11-17 05:00:00 3.7 10 Noroeste 14 Noroeste 0 -- -- 95
2020-11-17 04:00:00 3.9 8 Noroeste 12 Noroeste 0 -- -- 95
2020-11-17 03:00:00 4.4 10 Noroeste 12 Noroeste 0 -- -- 95
2020-11-17 02:00:00 4.7 9 Noroeste 15 Noroeste 0 -- -- 94
2020-11-17 01:00:00 5.1 6 Noroeste 7 Noroeste 0 -- -- 94
2020-11-17 00:00:00 5.2 4 Norte 7 Norte 0 -- -- 92
2020-11-16 23:00:00 6 4 Norte 8 Norte 0 -- -- 92
2020-11-16 22:00:00 6.6 2 Este 4 Este 0 -- -- 91
2020-11-16 21:00:00 7.5 0 Calma 6 Sudoeste 0 -- -- 90
2020-11-16 20:00:00 8.6 0 Calma 4 Sudoeste 0 -- -- 86
2020-11-16 19:00:00 10.6 0 Calma 4 Norte 0 -- -- 80
2020-11-16 18:00:00 13.6 0 Calma 4 Norte 0 -- -- 71
2020-11-16 17:00:00 15.5 0 Calma 8 Norte 0 -- -- 63
2020-11-16 16:00:00 15.3 4 Noroeste 12 Noroeste 0 -- -- 64
2020-11-16 15:00:00 14.9 4 Noroeste 12 Oeste 0 -- -- 65
2020-11-16 14:00:00 14.1 6 Noroeste 13 Noroeste 0 -- -- 69
2020-11-16 13:00:00 13.3 4 Noroeste 14 Sudoeste 0 -- -- 69
2020-11-16 12:00:00 12.9 6 Noroeste 14 Norte 0 -- -- 76
2020-11-16 11:00:00 11 8 Noroeste 11 Noroeste 0 -- -- 82
2020-11-16 10:00:00 10.1 0 Calma 5 Norte 0 -- -- 91
2020-11-16 09:00:00 8.4 3 Este 10 Norte 0 -- -- 97
2020-11-16 08:00:00 6.9 0 Calma 8 Nordeste 0 -- -- 96
2020-11-16 07:00:00 7.1 6 Nordeste 10 Norte 0 -- -- 94
2020-11-16 06:00:00 8.6 3 Oeste 14 Oeste 0 -- -- 92
2020-11-16 05:00:00 10.3 9 Oeste 18 Sudoeste 0 -- -- 92
2020-11-16 04:00:00 10.7 13 Sudoeste 18 Sudoeste 0 -- -- 94
2020-11-16 03:00:00 10.7 10 Sudoeste 17 Sudoeste 0 -- -- 95
2020-11-16 02:00:00 10.8 10 Sudoeste 19 Sudoeste 0 -- -- 94
2020-11-16 01:00:00 11.7 8 Sudoeste 15 Sur 0 -- -- 94
2020-11-16 00:00:00 11.8 5 Sur 15 Sudoeste 0 -- -- 93
2020-11-15 23:00:00 12.4 10 Sudoeste 14 Sudoeste 0 -- -- 94
2020-11-15 22:00:00 13 11 Sudoeste 18 Sudoeste 0 -- -- 93
2020-11-15 21:00:00 13.6 9 Sudoeste 24 Sudoeste 0 -- -- 94
2020-11-15 20:00:00 13.8 12 Sudoeste 19 Sudoeste 0 -- -- 93
2020-11-15 19:00:00 13.8 10 Sudoeste 27 Sudoeste 0 -- -- 93
2020-11-15 18:00:00 14.5 15 Sudoeste 29 Sudoeste 0 -- -- 91
2020-11-15 17:00:00 15.7 25 Sudoeste 44 Sudoeste 0 -- -- 84
2020-11-15 16:00:00 16.4 28 Sudoeste 45 Sudoeste 0 -- -- 79
2020-11-15 15:00:00 16.7 30 Sudoeste 55 Sudoeste 0 -- -- 79
2020-11-15 14:00:00 16.8 30 Sudoeste 49 Sudoeste 0 -- -- 79
2020-11-15 13:00:00 15.8 26 Sudoeste 48 Sudoeste 0 -- -- 84
2020-11-15 12:00:00 15.2 21 Sudoeste 43 Sudoeste 0.2 -- -- 88
2020-11-15 11:00:00 14.7 19 Sudoeste 33 Sudoeste 0 -- -- 91
2020-11-15 10:00:00 14 16 Sudoeste 26 Sudoeste 0 -- -- 94
2020-11-15 09:00:00 13.4 12 Sudoeste 24 Sudoeste 0 -- -- 94
2020-11-15 08:00:00 12.8 10 Sur 17 Sur 0 -- -- 95
2020-11-15 07:00:00 12.3 10 Sur 22 Sur 0 -- -- 95
2020-11-15 06:00:00 12.2 13 Sur 19 Sur 0 -- -- 96
2020-11-15 05:00:00 11.5 13 Sur 21 Sur 0.2 -- -- 95
2020-11-15 04:00:00 10.8 11 Este 15 Sur 0 -- -- 94
2020-11-15 03:00:00 11.4 7 Sur 19 Sur 0.2 -- -- 92
2020-11-15 02:00:00 11.7 13 Sur 21 Sur 0 -- -- 92
2020-11-15 01:00:00 11.8 13 Sur 21 Sur 0 -- -- 92
2020-11-15 00:00:00 11.9 12 Sur 24 Sudoeste 0 -- -- 91
2020-11-14 23:00:00 12.5 17 Sur 29 Sur 0 -- -- 90
2020-11-14 22:00:00 11.4 11 Sudoeste 18 Sudoeste 0 -- -- 93
2020-11-14 21:00:00 12.4 9 Sur 19 Sudoeste 0 -- -- 90
2020-11-14 20:00:00 13 9 Sur 15 Sur 0 -- -- 90
2020-11-14 19:00:00 12.8 10 Sur 16 Sur 0 -- -- 91
2020-11-14 18:00:00 13 7 Sur 13 Sur 0 -- -- 88
2020-11-14 17:00:00 13.7 7 Sur 13 Sur 0 -- -- 86
2020-11-14 16:00:00 13.3 8 Sur 13 Sur 0 -- -- 86
2020-11-14 15:00:00 12.2 2 Nordeste 9 Sur 0 -- -- 89
2020-11-14 14:00:00 11 5 Sur 13 Sudeste 0 -- -- 96
2020-11-14 13:00:00 9.1 3 Este 9 Este 0 -- -- 98
2020-11-14 12:00:00 8 6 Este 9 Sudeste 0 -- -- 98
2020-11-14 11:00:00 7.1 3 Este 5 Este 0 -- -- 98
2020-11-14 10:00:00 6.7 2 Nordeste 5 Este 0 -- -- 98
2020-11-14 09:00:00 6.2 0 Calma 6 Sudeste 0 -- -- 98
2020-11-14 08:00:00 5.6 4 Sudeste 7 Este 0 -- -- 98
2020-11-14 07:00:00 5.6 4 Nordeste 8 Nordeste 0 -- -- 98
2020-11-14 06:00:00 5.6 4 Nordeste 8 Nordeste 0 -- -- 98
2020-11-14 05:00:00 5.6 6 Nordeste 13 Este 0 -- -- 97
2020-11-14 04:00:00 5.7 7 Nordeste 10 Nordeste 0 -- -- 97
2020-11-14 03:00:00 5.6 8 Este 12 Este 0 -- -- 97
2020-11-14 02:00:00 6.2 6 Nordeste 12 Este 0 -- -- 97
2020-11-14 01:00:00 6.3 0 Calma 6 Sur 0 -- -- 97
2020-11-14 00:00:00 6 2 Sur 5 Noroeste 0 -- -- 97
2020-11-13 23:00:00 6.2 5 Oeste 8 Oeste 0.2 -- -- 97
2020-11-13 22:00:00 6.5 2 Sudoeste 6 Este 0 -- -- 96
2020-11-13 21:00:00 7 3 Este 9 Este 0 -- -- 97
2020-11-13 20:00:00 7.4 4 Este 10 Este 0 -- -- 96
2020-11-13 19:00:00 7.9 6 Este 11 Este 0 -- -- 96
2020-11-13 18:00:00 8.6 6 Este 9 Este 0 -- -- 96
2020-11-13 17:00:00 8.9 3 Sudeste 8 Este 0 -- -- 96
2020-11-13 16:00:00 9.1 3 Norte 7 Norte 0 -- -- 97
2020-11-13 15:00:00 8.9 0 Calma 6 Norte 0 -- -- 97
2020-11-13 14:00:00 8.8 3 Sudoeste 10 Este 0 -- -- 97
2020-11-13 13:00:00 8.7 4 Este 9 Sur 0 -- -- 98
2020-11-13 12:00:00 8.5 6 Este 10 Sudeste 0 -- -- 98
2020-11-13 11:00:00 8.1 0 Calma 8 Sur 0 -- -- 97
2020-11-13 10:00:00 7.8 3 Sudeste 9 Nordeste 0 -- -- 98
2020-11-13 09:00:00 7.6 3 Nordeste 8 Norte 0 -- -- 98
2020-11-13 08:00:00 7.4 3 Noroeste 12 Oeste 0 -- -- 97
2020-11-13 07:00:00 7.6 8 Oeste 10 Oeste 0 -- -- 97
2020-11-13 06:00:00 7.6 7 Oeste 9 Oeste 0 -- -- 97
2020-11-13 05:00:00 7.5 6 Noroeste 13 Noroeste 0 -- -- 97
2020-11-13 04:00:00 7.5 8 Noroeste 13 Noroeste 0 -- -- 97
2020-11-13 03:00:00 7.3 10 Norte 18 Noroeste 0 -- -- 97
2020-11-13 02:00:00 7.2 13 Noroeste 19 Noroeste 0 -- -- 97
2020-11-13 01:00:00 7.2 8 Noroeste 15 Noroeste 0 -- -- 96
2020-11-13 00:00:00 7.3 11 Noroeste 14 Noroeste 0 -- -- 96
2020-11-12 23:00:00 7 7 Noroeste 9 Noroeste 0 -- -- 95
2020-11-12 22:00:00 7.2 5 Noroeste 10 Noroeste 0 -- -- 95
2020-11-12 21:00:00 7.5 7 Noroeste 9 Noroeste 0 -- -- 94
2020-11-12 20:00:00 8.2 0 Calma 7 Oeste 0 -- -- 93
2020-11-12 19:00:00 8.9 2 Noroeste 3 Norte 0 -- -- 91
2020-11-12 18:00:00 9.8 0 Calma 5 Este 0 -- -- 89
2020-11-12 17:00:00 10.5 4 Este 8 Nordeste 0 -- -- 88
2020-11-12 16:00:00 10.5 3 Noroeste 11 Norte 0 -- -- 88
2020-11-12 15:00:00 10.4 7 Norte 10 Norte 0 -- -- 89
2020-11-12 14:00:00 9.8 3 Norte 12 Nordeste 0 -- -- 95
2020-11-12 13:00:00 9.3 5 Nordeste 11 Nordeste 0 -- -- 97
2020-11-12 12:00:00 8.5 6 Nordeste 10 Nordeste 0 -- -- 97
2020-11-12 11:00:00 8 5 Nordeste 12 Noroeste 0 -- -- 97
2020-11-12 10:00:00 7.6 0 Calma 10 Noroeste 0 -- -- 97
2020-11-12 09:00:00 7.7 4 Noroeste 9 Norte 0 -- -- 97
2020-11-12 08:00:00 7.6 3 Noroeste 10 Noroeste 0 -- -- 97
2020-11-12 07:00:00 7 3 Norte 9 Noroeste 0 -- -- 97
2020-11-12 06:00:00 5.4 5 Oeste 5 Oeste 0 -- -- 96
2020-11-12 05:00:00 5.9 3 Este 5 Este 0 -- -- 96
2020-11-12 04:00:00 6.3 4 Norte 6 Norte 0 -- -- 95
2020-11-12 03:00:00 6.2 0 Calma 5 Este 0 -- -- 95
2020-11-12 02:00:00 6.2 2 Este 5 Nordeste 0 -- -- 94
2020-11-12 01:00:00 7.4 0 Calma 5 Nordeste 0 -- -- 94
2020-11-12 00:00:00 7.7 0 Calma 4 Este 0 -- -- 93
2020-11-11 23:00:00 8.2 4 Sudoeste 6 Sur 0 -- -- 94
2020-11-11 22:00:00 8.5 2 Sudoeste 9 Sur 0 -- -- 93
2020-11-11 21:00:00 8.8 7 Sudeste 9 Sur 0 -- -- 93
2020-11-11 20:00:00 9 8 Sudeste 12 Sur 0 -- -- 93
2020-11-11 19:00:00 9.1 0 Calma 12 Sudeste 0 -- -- 90
2020-11-11 18:00:00 9.7 9 Sur 18 Sudeste 0 -- -- 88
2020-11-11 17:00:00 10.2 5 Sudeste 16 Sudeste 0 -- -- 85
2020-11-11 16:00:00 10.6 9 Sudeste 21 Sudeste 0 -- -- 83
2020-11-11 15:00:00 10.7 8 Sur 16 Sur 0 -- -- 82
2020-11-11 14:00:00 10.7 8 Sudeste 12 Sudeste 0 -- -- 83
2020-11-11 13:00:00 9 7 Oeste 12 Oeste 0 -- -- 91
2020-11-11 12:00:00 8.4 5 Sudoeste 10 Sudoeste 0 -- -- 94
2020-11-11 11:00:00 8 5 Sudoeste 10 Sur 0 -- -- 94
2020-11-11 10:00:00 7.7 0 Calma 7 Oeste 0 -- -- 95
2020-11-11 09:00:00 7.3 6 Oeste 7 Oeste 0 -- -- 94
2020-11-11 08:00:00 7.2 4 Oeste 9 Sudeste 0 -- -- 93
2020-11-11 07:00:00 7.4 8 Este 11 Este 0 -- -- 92
2020-11-11 06:00:00 7.6 5 Este 9 Este 0 -- -- 91
2020-11-11 05:00:00 7.7 5 Este 11 Este 0 -- -- 91
2020-11-11 04:00:00 7.9 0 Calma 9 Sur 0 -- -- 90
2020-11-11 03:00:00 7.8 3 Sudeste 13 Sudeste 0 -- -- 90
2020-11-11 02:00:00 7.9 6 Este 13 Sudeste 0 -- -- 92
2020-11-11 01:00:00 8.1 5 Sudeste 12 Sudeste 0 -- -- 93
2020-11-11 00:00:00 8.1 4 Sudeste 15 Este 0 -- -- 94
2020-11-10 23:00:00 8.1 0 Calma 13 Nordeste 0 -- -- 95
2020-11-10 22:00:00 8.2 7 Nordeste 11 Nordeste 0 -- -- 95
2020-11-10 21:00:00 8.1 4 Nordeste 13 Este 0 -- -- 95
2020-11-10 20:00:00 8.2 7 Este 12 Nordeste 0 -- -- 95
2020-11-10 19:00:00 8.3 5 Norte 10 Norte 0 -- -- 95
2020-11-10 18:00:00 8.1 5 Noroeste 10 Noroeste 0 -- -- 95
2020-11-10 17:00:00 8.1 9 Este 13 Este 0 -- -- 95
2020-11-10 16:00:00 7.9 5 Nordeste 10 Nordeste 0 -- -- 96
2020-11-10 15:00:00 7.9 8 Este 17 Este 0 -- -- 97
2020-11-10 14:00:00 7.6 5 Este 12 Nordeste 0 -- -- 97
2020-11-10 13:00:00 7.3 8 Este 12 Nordeste 0 -- -- 97
2020-11-10 12:00:00 7 5 Este 12 Nordeste 0.2 -- -- 97
2020-11-10 11:00:00 6.2 6 Nordeste 10 Nordeste 0 -- -- 97
2020-11-10 10:00:00 5.5 5 Nordeste 9 Norte 0 -- -- 97
2020-11-10 09:00:00 4.9 5 Nordeste 8 Norte 0 -- -- 97
2020-11-10 08:00:00 4.2 0 Calma 4 Sudoeste 0 -- -- 96
2020-11-10 07:00:00 3.4 0 Calma 3 Nordeste 0 -- -- 96
2020-11-10 06:00:00 2.3 3 Este 5 Este 0 -- -- 95
2020-11-10 05:00:00 2.8 2 Norte 4 Norte 0 -- -- 95
2020-11-10 04:00:00 3.5 4 Noroeste 8 Oeste 0 -- -- 95
2020-11-10 03:00:00 4 5 Oeste 6 Oeste 0 -- -- 95
2020-11-10 02:00:00 4.8 3 Oeste 7 Oeste 0 -- -- 94
2020-11-10 01:00:00 6.2 4 Sudoeste 9 Sudoeste 0 -- -- 94
2020-11-10 00:00:00 6.2 3 Sur 4 Sur 0 -- -- 93
2020-11-09 23:00:00 7.6 5 Oeste 8 Oeste 0 -- -- 93
2020-11-09 22:00:00 7.9 6 Oeste 8 Sudoeste 0 -- -- 92
2020-11-09 21:00:00 9.3 6 Sudoeste 15 Sudoeste 0 -- -- 91
2020-11-09 20:00:00 9.9 2 Este 12 Sudoeste 0 -- -- 87
2020-11-09 19:00:00 11.7 8 Sudoeste 14 Sudoeste 0 -- -- 86
2020-11-09 18:00:00 13 8 Sudoeste 16 Sudoeste 0 -- -- 79
2020-11-09 17:00:00 13.5 10 Sudoeste 19 Sudoeste 0 -- -- 74
2020-11-09 16:00:00 13.9 8 Sudoeste 27 Sudoeste 0 -- -- 71
2020-11-09 15:00:00 14 17 Sudoeste 26 Sudoeste 0 -- -- 70
2020-11-09 14:00:00 13.5 12 Sudoeste 27 Sudoeste 0 -- -- 79
2020-11-09 13:00:00 12.9 10 Sudoeste 24 Sur 0 -- -- 85
2020-11-09 12:00:00 12.2 11 Sur 21 Sudoeste 0 -- -- 87
2020-11-09 11:00:00 11.2 9 Sur 21 Sur 0 -- -- 91
2020-11-09 10:00:00 10.4 8 Sur 17 Sudoeste 0 -- -- 94
2020-11-09 09:00:00 9.4 6 Sur 12 Sudoeste 0 -- -- 96
2020-11-09 08:00:00 8.5 6 Sudoeste 13 Sur 0 -- -- 95
2020-11-09 07:00:00 9.4 3 Sudoeste 10 Sudoeste 0 -- -- 96
2020-11-09 06:00:00 9.7 5 Sudoeste 11 Sudoeste 0 -- -- 96
2020-11-09 05:00:00 9 6 Sur 12 Sur 0 -- -- 96
2020-11-09 04:00:00 9.3 9 Sur 13 Sur 0 -- -- 96
2020-11-09 03:00:00 9.4 8 Sur 15 Sur 0 -- -- 95
2020-11-09 02:00:00 9.7 6 Sur 13 Sur 0 -- -- 95
2020-11-09 01:00:00 9.6 8 Sur 12 Sur 0 -- -- 94
2020-11-09 00:00:00 9.9 9 Sur 13 Sur 0 -- -- 94
2020-11-08 23:00:00 10.3 8 Sur 24 Sur 0.2 -- -- 93
2020-11-08 22:00:00 10.6 14 Sur 27 Sur 0.2 -- -- 93
2020-11-08 21:00:00 10.6 16 Sur 24 Sur 2 -- -- 93
2020-11-08 20:00:00 10.8 18 Sur 36 Sudeste 1.4 -- -- 91
2020-11-08 19:00:00 10.8 20 Sur 30 Sur 0.4 -- -- 91
2020-11-08 18:00:00 11.1 17 Sur 33 Sur 0 -- -- 88
2020-11-08 17:00:00 12.5 19 Sur 33 Sur 0 -- -- 83
2020-11-08 16:00:00 13.2 21 Sur 29 Sudeste 0 -- -- 86
2020-11-08 15:00:00 12.4 3 Sudeste 8 Sudeste 0 -- -- 86
2020-11-08 14:00:00 11.5 5 Sudoeste 32 Oeste 2 -- -- 89
2020-11-08 13:00:00 12.6 9 Sudoeste 28 Sur 0.6 -- -- 87
2020-11-08 12:00:00 13.3 18 Sudeste 28 Sudeste 0 -- -- 79
2020-11-08 11:00:00 12.4 21 Sudeste 30 Sudeste 0 -- -- 81
2020-11-08 10:00:00 11.1 23 Sudeste 31 Sudeste 0 -- -- 85
2020-11-08 09:00:00 9.5 14 Sudeste 19 Sudeste 0 -- -- 90
2020-11-08 08:00:00 8.2 15 Sudeste 24 Sudeste 0 -- -- 90
2020-11-08 07:00:00 8.4 16 Sudeste 22 Sudeste 0 -- -- 89
2020-11-08 06:00:00 9.4 16 Sudeste 26 Sudeste 0 -- -- 87
2020-11-08 05:00:00 9.8 13 Sudeste 19 Sudeste 0 -- -- 90
2020-11-08 04:00:00 9.8 10 Sudeste 14 Sudeste 0 -- -- 91
2020-11-08 03:00:00 9.1 8 Sudeste 15 Este 0 -- -- 93
2020-11-08 02:00:00 8.6 10 Este 17 Sudeste 0 -- -- 93
2020-11-08 01:00:00 8.5 6 Este 17 Sudeste 0 -- -- 90
2020-11-08 00:00:00 9.6 13 Sudeste 21 Sur 0 -- -- 90
2020-11-07 23:00:00 8.9 10 Sudeste 19 Sur 0 -- -- 89
2020-11-07 22:00:00 9.5 14 Sudeste 18 Sudeste 0 -- -- 89
2020-11-07 21:00:00 9.1 5 Sudeste 12 Sur 0 -- -- 87
2020-11-07 20:00:00 11 9 Sur 17 Sur 0 -- -- 82
2020-11-07 19:00:00 12.1 8 Sur 14 Sudoeste 0 -- -- 79
2020-11-07 18:00:00 13.4 8 Sudoeste 26 Sudoeste 0 -- -- 74
2020-11-07 17:00:00 14.2 16 Sudoeste 32 Sudoeste 0 -- -- 70
2020-11-07 16:00:00 15.8 20 Sudoeste 38 Sudoeste 0 -- -- 63
2020-11-07 15:00:00 16.1 21 Sudoeste 37 Sudoeste 0 -- -- 63
2020-11-07 14:00:00 15.4 22 Sudoeste 36 Sudoeste 0 -- -- 69
2020-11-07 13:00:00 14.8 21 Sudoeste 31 Sudoeste 0 -- -- 74
2020-11-07 12:00:00 13.3 17 Sudoeste 36 Sudoeste 0 -- -- 82
2020-11-07 11:00:00 11.9 22 Sudoeste 31 Sudoeste 0.2 -- -- 89
2020-11-07 10:00:00 11.5 9 Sudoeste 14 Sudoeste 0 -- -- 95
2020-11-07 09:00:00 10.2 6 Sudoeste 13 Sur 1.4 -- -- 95
2020-11-07 08:00:00 9.6 2 Sur 6 Este 0 -- -- 95
2020-11-07 07:00:00 9.7 4 Este 6 Nordeste 0 -- -- 94
2020-11-07 06:00:00 10.2 0 Calma 4 Este 0.2 -- -- 94
2020-11-07 05:00:00 10.5 4 Nordeste 5 Noroeste 0 -- -- 94
2020-11-07 04:00:00 10.6 6 Nordeste 6 Nordeste 0.2 -- -- 94
2020-11-07 03:00:00 10.7 3 Norte 10 Sudeste 0 -- -- 93
2020-11-07 02:00:00 10.9 5 Sudeste 16 Este 0 -- -- 93
2020-11-07 01:00:00 11.1 14 Sudeste 25 Este 0 -- -- 94
2020-11-07 00:00:00 11.2 12 Este 17 Este 0.2 -- -- 94
2020-11-06 23:00:00 11.5 0 Calma 11 Sur 0.6 -- -- 92
2020-11-06 22:00:00 12.2 12 Sur 46 Sudeste 1.8 -- -- 91
2020-11-06 21:00:00 11.6 23 Este 42 Este 0.2 -- -- 91
2020-11-06 20:00:00 12.7 39 Sudeste 59 Sudeste 2 -- -- 86
2020-11-06 19:00:00 14.7 22 Sudeste 46 Sudeste 0.2 -- -- 84
2020-11-06 18:00:00 16 32 Sudeste 45 Sudeste 0 -- -- 75
2020-11-06 17:00:00 16.1 28 Sudeste 41 Sudeste 0 -- -- 76
2020-11-06 16:00:00 16.1 29 Sudeste 39 Sudeste 0 -- -- 76
2020-11-06 15:00:00 14.2 15 Este 26 Este 0 -- -- 83
2020-11-06 14:00:00 13.9 17 Este 27 Nordeste 0 -- -- 82
2020-11-06 13:00:00 13.1 19 Este 33 Este 0 -- -- 85
2020-11-06 12:00:00 12.8 8 Este 28 Este 0 -- -- 85
2020-11-06 11:00:00 12.2 16 Nordeste 23 Nordeste 0 -- -- 88
2020-11-06 10:00:00 11.5 17 Este 35 Este 0 -- -- 89
2020-11-06 09:00:00 10.6 7 Este 21 Este 0 -- -- 90
2020-11-06 08:00:00 10 19 Este 27 Este 0 -- -- 93
2020-11-06 07:00:00 9 11 Este 21 Este 0 -- -- 94
2020-11-06 06:00:00 9.5 11 Este 18 Este 0 -- -- 94
2020-11-06 05:00:00 10.1 12 Sudeste 27 Sur 0.2 -- -- 92
2020-11-06 04:00:00 9.1 11 Este 21 Este 0 -- -- 96
2020-11-06 03:00:00 8.3 11 Nordeste 22 Nordeste 0.2 -- -- 94
2020-11-06 02:00:00 8.8 15 Nordeste 23 Nordeste 0 -- -- 93
2020-11-06 01:00:00 9.3 17 Nordeste 25 Este 0 -- -- 93
2020-11-06 00:00:00 10 15 Nordeste 30 Este 0 -- -- 93
2020-11-05 23:00:00 10.4 23 Este 40 Este 1 -- -- 93
2020-11-05 22:00:00 10.4 16 Este 28 Este 0.8 -- -- 93
2020-11-05 21:00:00 10.4 24 Este 32 Este 0.4 -- -- 93
2020-11-05 20:00:00 10.5 20 Nordeste 27 Nordeste 0.8 -- -- 92
2020-11-05 19:00:00 10.6 21 Nordeste 36 Este 0.2 -- -- 90
2020-11-05 18:00:00 11.3 24 Este 35 Nordeste 0 -- -- 84
2020-11-05 17:00:00 12 26 Este 39 Este 0 -- -- 80
2020-11-05 16:00:00 12.7 26 Nordeste 41 Nordeste 0 -- -- 76
2020-11-05 15:00:00 12.2 25 Nordeste 51 Este 0 -- -- 75
2020-11-05 14:00:00 12.3 29 Este 60 Este 0 -- -- 75
2020-11-05 13:00:00 12 32 Nordeste 50 Nordeste 0 -- -- 77
2020-11-05 12:00:00 10.7 34 Nordeste 51 Este 0.2 -- -- 84
2020-11-05 11:00:00 8.4 32 Nordeste 51 Nordeste 0.2 -- -- 90
2020-11-05 10:00:00 8.1 34 Nordeste 49 Nordeste 0 -- -- 86
2020-11-05 09:00:00 7.3 31 Nordeste 60 Nordeste 0 -- -- 87
2020-11-05 08:00:00 6.8 34 Nordeste 54 Nordeste 0 -- -- 87
2020-11-05 07:00:00 6.7 33 Nordeste 53 Nordeste 0 -- -- 87
2020-11-05 06:00:00 6.6 34 Nordeste 53 Nordeste 0 -- -- 87
2020-11-05 05:00:00 6.2 37 Nordeste 55 Nordeste 0 -- -- 87
2020-11-05 04:00:00 5.9 30 Nordeste 49 Nordeste 0 -- -- 86
2020-11-05 03:00:00 5.9 33 Nordeste 46 Nordeste 0 -- -- 85
2020-11-05 02:00:00 5.3 32 Nordeste 55 Nordeste 0 -- -- 84
2020-11-05 01:00:00 5.5 36 Nordeste 60 Nordeste 0 -- -- 82
2020-11-05 00:00:00 5.6 35 Nordeste 56 Nordeste 0 -- -- 81